Time;durP1;ratioP1;P1;durP2;ratioP2;P2;SDS_P1;SDS_P2;PMS_P1;PMS_P2;Temp;Humidity;BMP_temperature;BMP_pressure;BME280_temperature;BME280_humidity;BME280_pressure;Samples;Min_cycle;Max_cycle;Signal;HPM_P1;HPM_P2
2021/08/05 04:46:58;;;;;;;17.75;8.90;;;;;;;18.14;100.00;98329.45;1741643;82;21145;-55
2021/08/05 04:49:26;;;;;;;19.32;9.20;;;;;;;18.28;100.00;98328.35;1715715;82;21029;-55
2021/08/05 04:51:54;;;;;;;18.77;8.13;;;;;;;18.40;100.00;98336.06;1715658;82;21003;-54
2021/08/05 04:54:22;;;;;;;19.27;8.63;;;;;;;18.50;100.00;98335.50;1715711;82;21029;-55
2021/08/05 04:56:50;;;;;;;14.95;6.62;;;;;;;18.65;100.00;98336.54;1713420;83;21011;-55
2021/08/05 04:59:17;;;;;;;14.60;6.62;;;;;;;18.77;100.00;98337.05;1712496;84;20999;-58
2021/08/05 05:01:45;;;;;;;12.68;6.33;;;;;;;18.80;100.00;98337.83;1715745;84;21150;-57
2021/08/05 05:04:16;;;;;;;13.43;5.72;;;;;;;18.90;100.00;98338.33;1715718;82;21083;-55
2021/08/05 05:06:43;;;;;;;16.27;6.22;;;;;;;19.01;100.00;98338.00;1715853;83;21039;-55
2021/08/05 05:09:11;;;;;;;11.65;5.40;;;;;;;19.04;100.00;98335.34;1695994;82;21093;-52
2021/08/05 05:11:39;;;;;;;11.15;6.00;;;;;;;19.07;100.00;98332.89;1728095;82;21042;-53
2021/08/05 05:14:07;;;;;;;10.45;5.70;;;;;;;19.19;100.00;98329.89;1725610;83;21506;-51
2021/08/05 05:16:36;;;;;;;12.45;5.65;;;;;;;19.39;100.00;98331.66;1725973;82;21515;-53
2021/08/05 05:19:03;;;;;;;10.25;5.67;;;;;;;19.57;100.00;98328.84;1747172;81;20990;-55
2021/08/05 05:21:31;;;;;;;12.73;5.97;;;;;;;19.72;100.00;98329.28;1756545;80;20995;-51
2021/08/05 05:24:00;;;;;;;21.73;7.17;;;;;;;19.72;100.00;98339.44;1731087;81;21486;-51
2021/08/05 05:26:27;;;;;;;17.73;6.55;;;;;;;19.72;100.00;98342.66;1745097;82;21056;-54
2021/08/05 05:28:55;;;;;;;12.10;5.97;;;;;;;19.70;100.00;98341.60;1745191;82;21071;-54
2021/08/05 05:31:23;;;;;;;17.67;5.95;;;;;;;19.74;100.00;98345.32;1724171;82;21047;-50
2021/08/05 05:33:51;;;;;;;11.97;5.95;;;;;;;19.89;100.00;98341.16;1733544;82;21047;-55
2021/08/05 05:36:18;;;;;;;18.48;5.62;;;;;;;20.25;100.00;98337.39;1743608;82;21006;-52
2021/08/05 05:38:47;;;;;;;13.32;6.45;;;;;;;20.61;98.03;98335.94;1745262;82;21506;-54
2021/08/05 05:41:14;;;;;;;13.90;6.70;;;;;;;20.82;96.47;98331.70;1744604;82;21086;-51
2021/08/05 05:43:42;;;;;;;16.23;6.83;;;;;;;21.04;95.33;98321.74;1744750;82;21011;-51
2021/08/05 05:46:09;;;;;;;12.63;6.10;;;;;;;21.17;94.40;98331.22;1731044;81;21073;-51
2021/08/05 05:48:39;;;;;;;11.20;6.28;;;;;;;21.24;93.30;98325.50;1730246;83;21066;-54
2021/08/05 05:51:07;;;;;;;10.82;6.03;;;;;;;21.34;92.91;98328.06;1731362;83;21585;-52
2021/08/05 05:53:34;;;;;;;12.43;6.42;;;;;;;21.34;92.45;98326.72;1734421;82;21059;-50
2021/08/05 05:56:02;;;;;;;16.77;7.40;;;;;;;21.21;93.98;98328.73;1735679;83;21086;-52
2021/08/05 05:58:32;;;;;;;16.75;7.58;;;;;;;21.09;95.11;98325.70;1736287;83;21063;-49
2021/08/05 06:01:00;;;;;;;13.80;6.70;;;;;;;21.17;94.75;98330.42;1735298;83;21037;-50
2021/08/05 06:03:27;;;;;;;13.98;6.12;;;;;;;21.40;93.85;98330.92;1713860;83;20984;-50
2021/08/05 06:05:55;;;;;;;11.95;6.70;;;;;;;21.64;91.81;98324.66;1711525;82;21071;-51
2021/08/05 06:08:23;;;;;;;18.42;6.75;;;;;;;21.90;90.34;98327.70;1706795;83;21116;-52
2021/08/05 06:10:52;;;;;;;13.98;7.08;;;;;;;22.02;89.76;98326.69;1727145;83;21036;-54
2021/08/05 06:13:21;;;;;;;21.35;6.03;;;;;;;22.08;88.54;98329.56;1724208;83;20999;-53
2021/08/05 06:15:49;;;;;;;19.98;6.10;;;;;;;22.19;87.62;98322.13;1721925;83;21494;-55
2021/08/05 06:18:19;;;;;;;15.03;6.58;;;;;;;22.34;86.42;98334.48;1739353;82;21063;-54
2021/08/05 06:20:54;;;;;;;15.00;6.80;;;;;;;22.44;86.20;98327.59;1718361;82;20988;-50
2021/08/05 06:23:21;;;;;;;12.85;6.30;;;;;;;22.51;86.29;98326.64;1714557;83;21071;-57
2021/08/05 06:25:49;;;;;;;19.05;9.48;;;;;;;22.52;86.01;98318.83;1714274;83;21090;-49
2021/08/05 06:28:16;;;;;;;22.67;13.45;;;;;;;22.40;86.98;98328.72;1706848;84;21157;-50
2021/08/05 06:30:45;;;;;;;23.87;16.73;;;;;;;22.36;87.84;98320.21;1727129;83;21503;-52
2021/08/05 06:33:13;;;;;;;21.37;10.20;;;;;;;22.32;88.69;98320.58;1734872;83;21554;-50
2021/08/05 06:35:42;;;;;;;18.48;8.83;;;;;;;22.35;88.69;98317.28;1731116;83;21063;-55
2021/08/05 06:38:11;;;;;;;15.45;9.68;;;;;;;22.50;88.32;98311.63;1736030;83;21019;-49
2021/08/05 06:40:39;;;;;;;17.62;8.95;;;;;;;22.60;88.25;98303.92;1735953;83;21083;-50
2021/08/05 06:43:08;;;;;;;14.13;7.37;;;;;;;22.71;87.11;98303.41;1735812;83;21047;-56
2021/08/05 06:45:41;;;;;;;13.50;7.20;;;;;;;22.92;86.46;98301.66;1718908;81;21581;-55
2021/08/05 06:48:08;;;;;;;16.87;7.10;;;;;;;23.01;85.33;98295.27;1721814;82;21467;-52
2021/08/05 06:50:36;;;;;;;16.37;7.37;;;;;;;22.99;85.42;98310.09;1722095;83;21095;-55
2021/08/05 06:53:04;;;;;;;14.40;7.12;;;;;;;23.06;85.03;98297.06;1722510;83;21044;-54
2021/08/05 06:55:32;;;;;;;15.50;6.47;;;;;;;23.17;84.77;98305.15;1722961;82;21056;-52
2021/08/05 06:58:00;;;;;;;18.20;9.18;;;;;;;23.29;83.70;98299.23;1708702;82;21027;-54
2021/08/05 07:00:29;;;;;;;19.45;8.10;;;;;;;23.51;82.89;98290.36;1731994;82;21019;-55
2021/08/05 07:02:56;;;;;;;13.38;7.10;;;;;;;23.63;81.63;98287.14;1752201;82;21019;-54
2021/08/05 07:05:24;;;;;;;14.68;6.62;;;;;;;23.90;80.56;98292.93;1752023;81;21015;-50
2021/08/05 07:07:54;;;;;;;14.35;6.67;;;;;;;24.15;79.90;98290.14;1748211;82;22137;-51
2021/08/05 07:10:23;;;;;;;13.43;7.05;;;;;;;24.45;77.64;98283.16;1741135;82;21027;-52
2021/08/05 07:12:51;;;;;;;12.55;7.22;;;;;;;24.93;74.87;98287.13;1735358;82;20971;-50
2021/08/05 07:15:19;;;;;;;14.78;7.30;;;;;;;25.32;73.73;98288.14;1745251;82;21087;-50
2021/08/05 07:17:47;;;;;;;15.98;7.53;;;;;;;25.42;72.91;98296.70;1751985;82;21051;-50
2021/08/05 07:20:16;;;;;;;16.02;6.87;;;;;;;25.60;71.63;98296.13;1751514;81;20996;-50
2021/08/05 07:22:43;;;;;;;13.88;6.95;;;;;;;25.69;70.26;98288.83;1733297;81;21063;-52
2021/08/05 07:25:12;;;;;;;16.35;8.03;;;;;;;25.74;70.69;98285.17;1722696;83;21067;-50
2021/08/05 07:27:40;;;;;;;16.00;7.47;;;;;;;25.76;69.97;98294.31;1722644;82;21027;-54
2021/08/05 07:30:09;;;;;;;13.95;7.47;;;;;;;25.99;69.29;98292.20;1743586;82;21055;-55
2021/08/05 07:32:39;;;;;;;14.43;7.70;;;;;;;26.13;68.28;98287.37;1744565;81;21046;-54
2021/08/05 07:35:08;;;;;;;14.90;7.45;;;;;;;26.36;67.05;98283.86;1749391;82;21031;-52
2021/08/05 07:37:35;;;;;;;11.65;6.67;;;;;;;26.44;66.75;98281.72;1744998;82;21023;-56
2021/08/05 07:40:07;;;;;;;11.53;7.15;;;;;;;26.28;66.39;98288.75;1741009;82;21054;-54
2021/08/05 07:42:35;;;;;;;14.47;7.60;;;;;;;25.95;67.27;98283.94;1722589;83;21078;-53
2021/08/05 07:45:04;;;;;;;16.42;8.13;;;;;;;25.67;67.77;98274.05;1745314;81;21126;-54
2021/08/05 07:47:32;;;;;;;13.20;7.15;;;;;;;25.39;68.59;98279.80;1733219;82;21034;-53
2021/08/05 07:49:59;;;;;;;15.15;8.30;;;;;;;25.28;69.71;98270.99;1731737;82;21011;-52
2021/08/05 07:52:27;;;;;;;14.53;8.05;;;;;;;25.28;70.53;98273.13;1707116;83;21020;-52
2021/08/05 07:54:54;;;;;;;15.48;6.80;;;;;;;25.24;70.88;98275.45;1706986;84;21036;-49
2021/08/05 07:57:22;;;;;;;13.38;6.83;;;;;;;25.15;70.89;98282.19;1706868;84;21088;-52
2021/08/05 07:59:49;;;;;;;12.45;6.87;;;;;;;25.13;71.12;98279.81;1741537;80;21039;-51
2021/08/05 08:02:17;;;;;;;12.47;7.30;;;;;;;25.04;71.96;98280.32;1730235;82;21047;-54
2021/08/05 08:04:44;;;;;;;17.45;7.20;;;;;;;25.06;72.08;98271.41;1712010;83;21035;-52
2021/08/05 08:07:12;;;;;;;11.60;7.30;;;;;;;25.24;71.22;98280.30;1705453;84;20984;-54
2021/08/05 08:09:41;;;;;;;13.38;7.50;;;;;;;25.36;71.19;98262.91;1693436;84;21545;-53
2021/08/05 08:12:09;;;;;;;13.83;6.62;;;;;;;25.33;71.71;98264.88;1685296;83;20988;-55
2021/08/05 08:14:37;;;;;;;14.90;6.87;;;;;;;25.31;71.64;98273.06;1730675;82;21020;-55
2021/08/05 08:17:06;;;;;;;11.68;6.67;;;;;;;25.30;70.96;98261.48;1722228;82;21550;-53
2021/08/05 08:19:34;;;;;;;12.68;6.67;;;;;;;25.21;71.36;98256.64;1705895;83;20985;-54
2021/08/05 08:22:03;;;;;;;11.88;7.05;;;;;;;25.01;72.82;98258.05;1710935;83;21014;-54
2021/08/05 08:24:31;;;;;;;13.48;7.00;;;;;;;24.85;73.58;98257.72;1733062;82;21042;-54
2021/08/05 08:26:59;;;;;;;14.53;6.55;;;;;;;24.81;73.93;98259.45;1733574;82;21074;-51
2021/08/05 08:29:26;;;;;;;12.37;7.30;;;;;;;24.90;74.40;98262.95;1735668;82;20976;-53
2021/08/05 08:31:54;;;;;;;11.80;7.83;;;;;;;25.05;72.85;98259.55;1740477;82;21578;-53
2021/08/05 08:34:22;;;;;;;15.70;8.20;;;;;;;25.14;72.68;98256.33;1740423;82;21071;-50
2021/08/05 08:36:50;;;;;;;14.28;7.83;;;;;;;25.27;72.12;98250.53;1740832;82;21094;-52
2021/08/05 08:39:18;;;;;;;14.07;8.60;;;;;;;25.44;71.30;98255.91;1735891;82;20984;-53
2021/08/05 08:41:46;;;;;;;16.32;8.30;;;;;;;25.61;70.41;98251.04;1731935;83;21057;-53
2021/08/05 08:44:14;;;;;;;12.18;7.37;;;;;;;25.78;69.73;98251.03;1729281;81;21167;-53
2021/08/05 08:46:43;;;;;;;15.80;8.53;;;;;;;25.94;69.07;98243.99;1709914;84;21057;-54
2021/08/05 08:49:11;;;;;;;16.77;8.33;;;;;;;26.11;68.16;98243.70;1693522;85;21045;-53
2021/08/05 08:51:39;;;;;;;16.17;7.90;;;;;;;26.05;68.02;98247.69;1714708;83;21606;-48
2021/08/05 08:54:08;;;;;;;13.58;8.23;;;;;;;26.12;68.12;98243.92;1748392;82;21042;-51
2021/08/05 08:56:39;;;;;;;15.63;8.45;;;;;;;26.30;67.81;98240.02;1740839;82;21017;-51
2021/08/05 08:59:07;;;;;;;15.13;8.58;;;;;;;26.46;67.14;98238.94;1747845;82;21023;-51
2021/08/05 09:01:39;;;;;;;15.80;7.95;;;;;;;26.55;66.80;98228.84;1725671;82;21133;-52
2021/08/05 09:04:05;;;;;;;16.42;7.67;;;;;;;26.60;65.83;98235.98;1710645;83;21550;-53
2021/08/05 09:06:35;;;;;;;14.13;7.60;;;;;;;26.63;65.63;98230.72;1714827;83;20997;-52
2021/08/05 09:09:05;;;;;;;13.45;7.65;;;;;;;26.69;65.28;98222.65;1702833;84;21020;-49
2021/08/05 09:11:33;;;;;;;10.75;7.58;;;;;;;26.78;65.03;98229.89;1709456;83;21503;-53
2021/08/05 09:14:03;;;;;;;13.25;7.53;;;;;;;26.78;64.00;98219.08;1733300;83;21056;-52
2021/08/05 09:16:31;;;;;;;11.55;7.30;;;;;;;26.75;63.47;98212.44;1726670;82;21542;-54
2021/08/05 09:19:11;;;;;;;12.90;7.08;;;;;;;26.72;64.21;98211.73;1731326;82;21028;-51
2021/08/05 09:22:01;;;;;;;9.98;6.97;;;;;;;26.67;64.03;98222.20;1712555;83;21494;-53
2021/08/05 09:24:30;;;;;;;12.75;6.75;;;;;;;26.59;64.17;98217.63;1749941;82;21014;-52
2021/08/05 09:26:59;;;;;;;11.15;6.30;;;;;;;26.53;64.42;98214.88;1752253;81;21026;-54
2021/08/05 09:29:27;;;;;;;10.40;6.33;;;;;;;26.57;64.20;98223.14;1752629;82;20994;-53
2021/08/05 09:32:00;;;;;;;12.15;6.65;;;;;;;26.59;63.63;98218.98;1751840;82;20983;-53
2021/08/05 09:34:37;;;;;;;10.75;6.75;;;;;;;26.58;63.84;98219.31;1745705;80;21045;-53
2021/08/05 09:37:07;;;;;;;17.70;8.05;;;;;;;26.59;63.83;98213.57;1720719;83;20988;-52
2021/08/05 09:39:39;;;;;;;11.40;6.55;;;;;;;26.58;63.33;98216.61;1722263;83;21024;-54
2021/08/05 09:42:12;;;;;;;10.88;6.67;;;;;;;26.56;63.89;98213.45;1723830;83;20992;-51
2021/08/05 09:44:46;;;;;;;13.83;7.08;;;;;;;26.60;64.11;98205.69;1740782;82;21074;-51
2021/08/05 09:47:21;;;;;;;12.33;7.25;;;;;;;26.63;64.27;98205.05;1725811;82;21000;-51
2021/08/05 09:49:54;;;;;;;9.88;6.70;;;;;;;26.67;63.21;98201.14;1724579;82;21027;-52
2021/08/05 09:52:34;;;;;;;15.65;7.90;;;;;;;26.65;63.65;98202.00;1738552;82;21011;-50
2021/08/05 09:55:05;;;;;;;10.20;7.00;;;;;;;26.61;63.81;98194.31;1733469;82;20972;-50
2021/08/05 09:57:38;;;;;;;14.58;7.50;;;;;;;26.47;63.29;98189.96;1734338;82;20976;-51
2021/08/05 10:00:17;;;;;;;12.28;7.72;;;;;;;26.26;63.82;98185.61;1737153;82;21019;-51
2021/08/05 10:02:50;;;;;;;12.10;7.00;;;;;;;26.27;63.67;98188.57;1745616;82;20971;-52
2021/08/05 10:05:25;;;;;;;13.98;8.00;;;;;;;26.36;64.18;98186.59;1744110;82;20967;-54
2021/08/05 10:07:56;;;;;;;13.58;7.70;;;;;;;26.52;64.74;98184.14;1724603;82;21049;-49
2021/08/05 10:10:26;;;;;;;12.75;6.87;;;;;;;26.69;64.86;98186.16;1716525;82;21004;-50
2021/08/05 10:12:56;;;;;;;11.57;6.72;;;;;;;26.91;63.30;98181.54;1746415;82;21015;-51
2021/08/05 10:15:24;;;;;;;11.55;6.95;;;;;;;27.09;61.32;98187.05;1747192;82;21063;-53
2021/08/05 10:17:56;;;;;;;10.18;6.87;;;;;;;27.18;61.38;98181.01;1726537;82;21023;-50
2021/08/05 10:20:26;;;;;;;10.58;7.03;;;;;;;27.28;61.11;98176.28;1743906;82;21039;-53
2021/08/05 10:22:56;;;;;;;14.18;7.35;;;;;;;27.40;60.76;98169.55;1746685;82;20976;-49
2021/08/05 10:25:26;;;;;;;12.37;6.72;;;;;;;27.50;60.32;98165.06;1752936;81;21016;-54
2021/08/05 10:27:56;;;;;;;;;;;;;;;27.53;59.91;98158.43;1726877;82;21069;-51
2021/08/05 10:30:24;;;;;;;10.40;6.80;;;;;;;27.56;59.04;98161.58;1752708;82;20103;-50
2021/08/05 10:32:53;;;;;;;15.30;7.50;;;;;;;27.46;59.62;98162.23;1752765;81;21557;-50
2021/08/05 10:35:21;;;;;;;12.55;7.25;;;;;;;27.46;59.53;98159.52;1750362;82;21042;-50
2021/08/05 10:37:49;;;;;;;12.60;7.30;;;;;;;27.44;59.73;98151.53;1730759;82;21081;-51
2021/08/05 10:40:17;;;;;;;12.63;6.80;;;;;;;27.58;60.41;98152.55;1722571;83;21126;-50
2021/08/05 10:42:47;;;;;;;10.93;7.03;;;;;;;27.74;59.97;98152.94;1722749;83;21082;-51
2021/08/05 10:45:19;;;;;;;11.97;6.65;;;;;;;27.89;58.29;98148.00;1722720;82;21074;-50
2021/08/05 10:47:48;;;;;;;14.18;6.85;;;;;;;27.98;58.22;98137.82;1721072;83;21055;-50
2021/08/05 10:50:21;;;;;;;10.93;6.53;;;;;;;28.06;57.76;98135.58;1719614;82;21028;-52
2021/08/05 10:52:51;;;;;;;9.18;6.22;;;;;;;28.16;57.55;98126.98;1722682;83;21091;-52
2021/08/05 10:55:33;;;;;;;8.68;6.15;;;;;;;28.34;56.72;98120.77;1729251;82;21045;-51
2021/08/05 10:58:21;;;;;;;10.18;6.35;;;;;;;28.43;55.62;98121.41;1744439;82;20995;-51
2021/08/05 11:00:58;;;;;;;13.18;6.10;;;;;;;28.42;56.61;98120.41;1752011;81;21094;-50
2021/08/05 11:03:41;;;;;;;13.20;6.75;;;;;;;28.42;55.30;98121.19;1723168;82;21051;-53
2021/08/05 11:06:26;;;;;;;11.40;6.30;;;;;;;28.46;55.14;98120.73;1735074;82;20999;-55
2021/08/05 11:08:54;;;;;;;9.75;6.28;;;;;;;28.39;56.28;98115.66;1728938;82;21047;-52
2021/08/05 11:11:31;;;;;;;11.48;6.28;;;;;;;28.23;55.77;98113.64;1735420;82;21021;-53
2021/08/05 11:14:06;;;;;;;10.28;6.42;;;;;;;28.20;55.86;98102.13;1722148;82;21032;-51
2021/08/05 11:17:01;;;;;;;10.95;5.95;;;;;;;28.18;55.78;98099.55;1722514;82;21075;-49
2021/08/05 11:19:35;;;;;;;10.03;5.80;;;;;;;28.07;56.00;98097.87;1723658;82;21022;-52
2021/08/05 11:22:32;;;;;;;10.45;6.50;;;;;;;28.05;56.49;98090.66;1731538;82;21004;-53
2021/08/05 11:25:00;;;;;;;10.08;6.10;;;;;;;28.09;56.17;98090.75;1721972;82;21072;-54
2021/08/05 11:27:28;;;;;;;12.00;6.22;;;;;;;28.13;55.54;98088.37;1722573;83;21559;-55
2021/08/05 11:29:57;;;;;;;12.20;6.30;;;;;;;28.23;55.43;98080.34;1714754;82;21499;-52
2021/08/05 11:32:30;;;;;;;12.85;6.20;;;;;;;28.34;54.99;98075.27;1740845;82;21056;-49
2021/08/05 11:35:08;;;;;;;9.25;6.15;;;;;;;28.41;54.44;98072.19;1737323;82;21063;-54
2021/08/05 11:37:36;;;;;;;9.75;6.12;;;;;;;28.48;54.50;98072.95;1740787;82;20995;-52
2021/08/05 11:40:06;;;;;;;11.28;6.35;;;;;;;28.54;53.60;98071.57;1719472;82;21071;-51
2021/08/05 11:42:35;;;;;;;11.15;6.20;;;;;;;28.48;52.91;98070.24;1749336;82;20968;-49
2021/08/05 11:45:09;;;;;;;9.20;6.20;;;;;;;28.36;53.26;98068.36;1735962;82;21134;-52
2021/08/05 11:47:40;;;;;;;11.12;6.17;;;;;;;28.23;53.88;98073.00;1727426;82;21023;-54
2021/08/05 11:50:13;;;;;;;10.80;6.12;;;;;;;28.22;54.59;98066.02;1718626;81;21076;-53
2021/08/05 11:52:44;;;;;;;11.18;6.20;;;;;;;28.29;54.06;98064.07;1699803;82;21500;-53
2021/08/05 11:55:25;;;;;;;13.22;7.08;;;;;;;28.27;54.05;98057.64;1706691;82;21050;-54
2021/08/05 11:58:02;;;;;;;12.33;6.60;;;;;;;28.25;54.46;98061.25;1704749;82;20966;-51
2021/08/05 12:00:40;;;;;;;13.03;7.40;;;;;;;28.39;54.44;98051.97;1703944;82;21076;-54
2021/08/05 12:03:10;;;;;;;12.75;7.47;;;;;;;28.45;52.98;98051.97;1707390;84;21541;-55
2021/08/05 12:05:39;;;;;;;12.10;6.80;;;;;;;28.34;52.16;98052.23;1707555;84;21481;-55
2021/08/05 12:08:08;;;;;;;13.83;7.75;;;;;;;28.18;53.76;98057.55;1707784;83;21120;-55
2021/08/05 12:10:39;;;;;;;13.55;7.67;;;;;;;28.19;54.04;98048.28;1707306;84;21015;-55
2021/08/05 12:13:21;;;;;;;17.90;7.67;;;;;;;28.31;54.91;98034.13;1706982;84;21569;-55
2021/08/05 12:15:55;;;;;;;10.78;6.70;;;;;;;28.44;54.46;98034.89;1707161;84;21008;-58
2021/08/05 12:18:26;;;;;;;12.33;7.05;;;;;;;28.62;53.49;98026.45;1721723;83;21498;-56
2021/08/05 12:21:07;;;;;;;12.33;7.50;;;;;;;28.75;53.06;98019.28;1735763;83;21071;-55
2021/08/05 12:23:37;;;;;;;12.98;7.90;;;;;;;28.77;53.45;98010.80;1712861;83;21023;-59
2021/08/05 12:26:12;;;;;;;14.43;7.13;;;;;;;28.71;53.16;98003.48;1736875;83;21506;-56
2021/08/05 12:28:41;;;;;;;12.30;7.08;;;;;;;28.64;52.10;97995.17;1735226;82;20976;-58
2021/08/05 12:31:11;;;;;;;13.85;7.05;;;;;;;28.60;52.00;98000.27;1736593;82;21001;-57
2021/08/05 12:33:40;;;;;;;12.55;6.80;;;;;;;28.64;52.02;97990.31;1719486;82;20972;-56
2021/08/05 12:36:14;;;;;;;12.63;7.27;;;;;;;28.74;51.45;97989.24;1722673;83;20993;-58
2021/08/05 12:38:50;;;;;;;13.38;7.50;;;;;;;28.84;49.93;97977.86;1707218;83;21025;-58
2021/08/05 12:41:30;;;;;;;9.33;6.83;;;;;;;28.92;49.10;97979.41;1704525;82;21553;-56
2021/08/05 12:44:07;;;;;;;12.82;7.90;;;;;;;28.96;49.07;97976.23;1717877;82;21016;-55
2021/08/05 12:46:35;;;;;;;15.30;7.20;;;;;;;28.89;49.46;97970.61;1725304;83;20987;-55
2021/08/05 12:49:02;;;;;;;12.58;6.58;;;;;;;28.88;50.10;97974.45;1743604;82;21521;-55
2021/08/05 12:51:32;;;;;;;10.93;6.78;;;;;;;28.91;48.87;97970.49;1722106;82;21091;-55
2021/08/05 12:54:18;;;;;;;12.17;7.60;;;;;;;28.95;49.25;97968.66;1723075;82;21626;-54
2021/08/05 12:56:48;;;;;;;12.55;6.97;;;;;;;29.01;48.57;97969.98;1722516;83;21507;-53
2021/08/05 12:59:15;;;;;;;10.30;7.17;;;;;;;29.05;49.11;97966.00;1731978;82;21470;-56
2021/08/05 13:01:44;;;;;;;11.78;6.83;;;;;;;29.14;49.39;97967.98;1752112;82;21114;-55
2021/08/05 13:04:25;;;;;;;10.30;6.60;;;;;;;29.09;47.88;97968.24;1740215;82;20962;-56
2021/08/05 13:06:57;;;;;;;13.00;6.72;;;;;;;28.83;47.99;97968.72;1732059;82;21506;-55
2021/08/05 13:09:29;;;;;;;11.08;7.10;;;;;;;28.61;49.30;97964.67;1749150;82;21027;-52
2021/08/05 13:12:01;;;;;;;14.93;7.05;;;;;;;28.49;49.71;97957.97;1750865;82;21019;-55
2021/08/05 13:14:40;;;;;;;13.62;7.15;;;;;;;28.37;50.74;97968.30;1748411;82;21014;-56
2021/08/05 13:17:13;;;;;;;12.23;6.92;;;;;;;28.29;51.46;97965.16;1747091;81;21074;-54
2021/08/05 13:20:06;;;;;;;10.95;6.50;;;;;;;28.26;52.02;97964.48;1735996;82;21065;-54
2021/08/05 13:22:40;;;;;;;18.42;6.92;;;;;;;28.39;51.72;97969.30;1728925;82;21074;-52
2021/08/05 13:25:13;;;;;;;16.62;6.72;;;;;;;28.42;51.27;97956.43;1752806;82;21470;-55
2021/08/05 13:27:42;;;;;;;11.80;7.00;;;;;;;28.39;51.22;97957.92;1729547;82;21519;-55
2021/08/05 13:30:19;;;;;;;10.35;6.97;;;;;;;28.33;51.59;97960.66;1722708;83;21064;-54
2021/08/05 13:32:49;;;;;;;13.53;6.85;;;;;;;28.28;51.69;97954.11;1736990;82;21031;-52
2021/08/05 13:35:22;;;;;;;14.75;6.42;;;;;;;28.20;51.99;97962.59;1752889;82;20990;-55
2021/08/05 13:38:04;;;;;;;14.73;7.17;;;;;;;28.16;52.26;97963.62;1748800;82;21058;-54
2021/08/05 13:40:35;;;;;;;10.38;6.40;;;;;;;28.05;53.05;97966.84;1744366;82;20991;-53
2021/08/05 13:43:03;;;;;;;12.00;6.70;;;;;;;27.96;53.17;97967.53;1750813;80;20940;-54
2021/08/05 13:45:31;;;;;;;12.25;7.60;;;;;;;27.86;53.17;97962.59;1749052;82;21054;-56
2021/08/05 13:48:01;;;;;;;12.45;6.67;;;;;;;27.76;53.61;97957.68;1743360;82;21046;-55
2021/08/05 13:50:32;;;;;;;;;;;;;;;27.80;53.85;97958.55;1754773;82;21561;-55
2021/08/05 13:53:03;;;;;;;10.95;6.95;;;;;;;27.97;53.26;97958.27;1737529;81;20123;-61
2021/08/05 13:55:35;;;;;;;13.22;7.42;;;;;;;28.17;53.20;97957.09;1714245;82;21512;-56
2021/08/05 13:58:04;;;;;;;9.15;6.40;;;;;;;28.35;52.59;97956.25;1750277;82;21102;-56
